sensor_id;sensor_type;location;lat;lon;timestamp;temperature;humidity
14008;DHT22;61651;45.508;12.232;2022-07-23T00:00:51;30.40;99.90
14008;DHT22;61651;45.508;12.232;2022-07-23T00:03:53;30.40;99.90
14008;DHT22;61651;45.508;12.232;2022-07-23T00:06:55;30.30;99.90
14008;DHT22;61651;45.508;12.232;2022-07-23T00:09:57;30.30;99.90
14008;DHT22;61651;45.508;12.232;2022-07-23T00:13:01;30.30;99.90
14008;DHT22;61651;45.508;12.232;2022-07-23T00:16:04;30.20;99.90
14008;DHT22;61651;45.508;12.232;2022-07-23T00:19:06;30.20;99.90
14008;DHT22;61651;45.508;12.232;2022-07-23T00:22:08;30.20;99.90
14008;DHT22;61651;45.508;12.232;2022-07-23T00:25:10;30.20;99.90
14008;DHT22;61651;45.508;12.232;2022-07-23T00:28:13;30.20;99.90
14008;DHT22;61651;45.508;12.232;2022-07-23T00:31:15;30.20;99.90
14008;DHT22;61651;45.508;12.232;2022-07-23T00:34:17;30.20;99.90
14008;DHT22;61651;45.508;12.232;2022-07-23T00:37:19;30.10;99.90
14008;DHT22;61651;45.508;12.232;2022-07-23T00:40:21;30.10;99.90
14008;DHT22;61651;45.508;12.232;2022-07-23T00:43:25;30.10;99.90
14008;DHT22;61651;45.508;12.232;2022-07-23T00:46:27;30.10;99.90
14008;DHT22;61651;45.508;12.232;2022-07-23T00:49:30;30.10;99.90
14008;DHT22;61651;45.508;12.232;2022-07-23T00:52:33;30.10;99.90
14008;DHT22;61651;45.508;12.232;2022-07-23T00:55:35;30.00;99.90
14008;DHT22;61651;45.508;12.232;2022-07-23T00:58:39;30.00;99.90
14008;DHT22;61651;45.508;12.232;2022-07-23T01:01:42;30.00;99.90
14008;DHT22;61651;45.508;12.232;2022-07-23T01:04:46;29.90;99.90
14008;DHT22;61651;45.508;12.232;2022-07-23T01:07:48;29.90;99.90
14008;DHT22;61651;45.508;12.232;2022-07-23T01:10:50;29.90;99.90
14008;DHT22;61651;45.508;12.232;2022-07-23T01:13:54;29.90;99.90
14008;DHT22;61651;45.508;12.232;2022-07-23T01:16:56;29.90;99.90
14008;DHT22;61651;45.508;12.232;2022-07-23T01:19:58;29.80;99.90
14008;DHT22;61651;45.508;12.232;2022-07-23T01:23:01;29.80;99.90
14008;DHT22;61651;45.508;12.232;2022-07-23T01:26:04;29.80;99.90
14008;DHT22;61651;45.508;12.232;2022-07-23T01:29:06;29.70;99.90
14008;DHT22;61651;45.508;12.232;2022-07-23T01:32:08;29.70;99.90
14008;DHT22;61651;45.508;12.232;2022-07-23T01:35:10;29.70;99.90
14008;DHT22;61651;45.508;12.232;2022-07-23T01:38:13;29.70;99.90
14008;DHT22;61651;45.508;12.232;2022-07-23T01:41:16;29.60;99.90
14008;DHT22;61651;45.508;12.232;2022-07-23T01:44:18;29.60;99.90
14008;DHT22;61651;45.508;12.232;2022-07-23T01:47:20;29.50;99.90
14008;DHT22;61651;45.508;12.232;2022-07-23T01:50:22;29.50;99.90
14008;DHT22;61651;45.508;12.232;2022-07-23T01:53:25;29.50;99.90
14008;DHT22;61651;45.508;12.232;2022-07-23T01:56:27;29.50;99.90
14008;DHT22;61651;45.508;12.232;2022-07-23T01:59:29;29.50;99.90
14008;DHT22;61651;45.508;12.232;2022-07-23T02:02:31;29.50;99.90
14008;DHT22;61651;45.508;12.232;2022-07-23T02:05:33;29.40;99.90
14008;DHT22;61651;45.508;12.232;2022-07-23T02:08:36;29.40;99.90
14008;DHT22;61651;45.508;12.232;2022-07-23T02:11:38;29.40;99.90
14008;DHT22;61651;45.508;12.232;2022-07-23T02:14:40;29.30;99.90
14008;DHT22;61651;45.508;12.232;2022-07-23T02:17:42;29.20;99.90
14008;DHT22;61651;45.508;12.232;2022-07-23T02:20:44;29.10;99.90
14008;DHT22;61651;45.508;12.232;2022-07-23T02:23:48;29.10;99.90
14008;DHT22;61651;45.508;12.232;2022-07-23T02:26:50;29.10;99.90
14008;DHT22;61651;45.508;12.232;2022-07-23T02:29:52;29.10;99.90
14008;DHT22;61651;45.508;12.232;2022-07-23T02:32:54;29.10;99.90
14008;DHT22;61651;45.508;12.232;2022-07-23T02:35:56;28.90;99.90
14008;DHT22;61651;45.508;12.232;2022-07-23T02:38:59;28.80;99.90
14008;DHT22;61651;45.508;12.232;2022-07-23T02:42:01;28.70;99.90
14008;DHT22;61651;45.508;12.232;2022-07-23T02:45:04;28.70;99.90
14008;DHT22;61651;45.508;12.232;2022-07-23T02:48:06;28.70;99.90
14008;DHT22;61651;45.508;12.232;2022-07-23T02:51:08;28.70;99.90
14008;DHT22;61651;45.508;12.232;2022-07-23T02:54:12;28.70;99.90
14008;DHT22;61651;45.508;12.232;2022-07-23T02:57:13;28.70;99.90
14008;DHT22;61651;45.508;12.232;2022-07-23T03:00:16;28.70;99.90
14008;DHT22;61651;45.508;12.232;2022-07-23T03:03:18;28.70;99.90
14008;DHT22;61651;45.508;12.232;2022-07-23T03:06:20;28.70;99.90
14008;DHT22;61651;45.508;12.232;2022-07-23T03:09:23;28.60;99.90
14008;DHT22;61651;45.508;12.232;2022-07-23T03:12:25;28.60;99.90
14008;DHT22;61651;45.508;12.232;2022-07-23T03:15:27;28.60;99.90
14008;DHT22;61651;45.508;12.232;2022-07-23T03:18:29;28.50;99.90
14008;DHT22;61651;45.508;12.232;2022-07-23T03:21:31;28.50;99.90
14008;DHT22;61651;45.508;12.232;2022-07-23T03:24:36;28.50;99.90
14008;DHT22;61651;45.508;12.232;2022-07-23T03:27:56;28.40;99.90
14008;DHT22;61651;45.508;12.232;2022-07-23T03:30:58;28.40;99.90
14008;DHT22;61651;45.508;12.232;2022-07-23T03:34:00;28.40;99.90
14008;DHT22;61651;45.508;12.232;2022-07-23T03:37:02;28.30;99.90
14008;DHT22;61651;45.508;12.232;2022-07-23T03:40:07;28.30;99.90
14008;DHT22;61651;45.508;12.232;2022-07-23T03:43:09;28.30;99.90
14008;DHT22;61651;45.508;12.232;2022-07-23T03:46:11;28.20;99.90
14008;DHT22;61651;45.508;12.232;2022-07-23T03:49:13;28.20;99.90
14008;DHT22;61651;45.508;12.232;2022-07-23T03:52:15;28.20;99.90
14008;DHT22;61651;45.508;12.232;2022-07-23T03:55:19;28.20;99.90
14008;DHT22;61651;45.508;12.232;2022-07-23T03:58:21;28.20;99.90
14008;DHT22;61651;45.508;12.232;2022-07-23T04:01:23;28.20;99.90
14008;DHT22;61651;45.508;12.232;2022-07-23T04:04:25;28.20;99.90
14008;DHT22;61651;45.508;12.232;2022-07-23T04:07:27;28.20;99.90
14008;DHT22;61651;45.508;12.232;2022-07-23T04:10:30;28.20;99.90
14008;DHT22;61651;45.508;12.232;2022-07-23T04:13:32;28.20;99.90
14008;DHT22;61651;45.508;12.232;2022-07-23T04:16:34;28.10;99.90
14008;DHT22;61651;45.508;12.232;2022-07-23T04:19:36;28.20;99.90
14008;DHT22;61651;45.508;12.232;2022-07-23T04:22:41;28.20;99.90
14008;DHT22;61651;45.508;12.232;2022-07-23T04:25:44;28.20;99.90
14008;DHT22;61651;45.508;12.232;2022-07-23T04:28:46;28.20;99.90
14008;DHT22;61651;45.508;12.232;2022-07-23T04:31:48;28.10;99.90
14008;DHT22;61651;45.508;12.232;2022-07-23T04:34:50;28.10;99.90
14008;DHT22;61651;45.508;12.232;2022-07-23T04:37:52;28.20;99.90
14008;DHT22;61651;45.508;12.232;2022-07-23T04:40:55;28.20;99.90
14008;DHT22;61651;45.508;12.232;2022-07-23T04:43:57;28.30;99.90
14008;DHT22;61651;45.508;12.232;2022-07-23T04:46:59;28.30;99.90
14008;DHT22;61651;45.508;12.232;2022-07-23T04:50:02;28.40;99.90
14008;DHT22;61651;45.508;12.232;2022-07-23T04:53:04;28.30;99.90
14008;DHT22;61651;45.508;12.232;2022-07-23T04:56:07;28.40;99.90
14008;DHT22;61651;45.508;12.232;2022-07-23T04:59:09;28.30;99.90
14008;DHT22;61651;45.508;12.232;2022-07-23T05:02:11;28.30;99.90
14008;DHT22;61651;45.508;12.232;2022-07-23T05:05:13;28.30;99.90
14008;DHT22;61651;45.508;12.232;2022-07-23T05:08:15;28.40;99.90
14008;DHT22;61651;45.508;12.232;2022-07-23T05:11:19;28.30;99.90
14008;DHT22;61651;45.508;12.232;2022-07-23T05:14:21;28.40;99.90
14008;DHT22;61651;45.508;12.232;2022-07-23T05:17:23;28.40;99.90
14008;DHT22;61651;45.508;12.232;2022-07-23T05:20:25;28.40;99.90
14008;DHT22;61651;45.508;12.232;2022-07-23T05:23:27;28.50;99.90
14008;DHT22;61651;45.508;12.232;2022-07-23T05:26:30;28.60;99.90
14008;DHT22;61651;45.508;12.232;2022-07-23T05:29:32;28.70;99.90
14008;DHT22;61651;45.508;12.232;2022-07-23T05:32:34;28.80;99.90
14008;DHT22;61651;45.508;12.232;2022-07-23T05:35:37;28.80;99.90
14008;DHT22;61651;45.508;12.232;2022-07-23T05:38:39;28.90;99.90
14008;DHT22;61651;45.508;12.232;2022-07-23T05:41:43;29.00;99.90
14008;DHT22;61651;45.508;12.232;2022-07-23T05:44:44;29.00;99.90
14008;DHT22;61651;45.508;12.232;2022-07-23T05:47:48;29.10;99.90
14008;DHT22;61651;45.508;12.232;2022-07-23T05:50:50;29.20;99.90
14008;DHT22;61651;45.508;12.232;2022-07-23T05:53:52;29.30;99.90
14008;DHT22;61651;45.508;12.232;2022-07-23T05:56:56;29.30;99.90
14008;DHT22;61651;45.508;12.232;2022-07-23T05:59:58;29.40;99.90
14008;DHT22;61651;45.508;12.232;2022-07-23T06:03:00;29.50;99.90
14008;DHT22;61651;45.508;12.232;2022-07-23T06:06:02;29.50;99.90
14008;DHT22;61651;45.508;12.232;2022-07-23T06:09:04;29.50;99.90
14008;DHT22;61651;45.508;12.232;2022-07-23T06:12:08;29.60;99.90
14008;DHT22;61651;45.508;12.232;2022-07-23T06:15:10;29.60;99.90
14008;DHT22;61651;45.508;12.232;2022-07-23T06:18:12;29.70;99.90
14008;DHT22;61651;45.508;12.232;2022-07-23T06:21:14;29.80;99.90
14008;DHT22;61651;45.508;12.232;2022-07-23T06:24:16;29.80;99.90
14008;DHT22;61651;45.508;12.232;2022-07-23T06:27:20;29.80;99.90
14008;DHT22;61651;45.508;12.232;2022-07-23T06:30:22;29.90;99.90
14008;DHT22;61651;45.508;12.232;2022-07-23T06:33:24;30.00;99.90
14008;DHT22;61651;45.508;12.232;2022-07-23T06:36:26;30.10;99.90
14008;DHT22;61651;45.508;12.232;2022-07-23T06:39:28;30.10;99.90
14008;DHT22;61651;45.508;12.232;2022-07-23T06:42:31;30.30;99.90
14008;DHT22;61651;45.508;12.232;2022-07-23T06:45:33;30.30;99.90
14008;DHT22;61651;45.508;12.232;2022-07-23T06:48:35;30.40;99.90
14008;DHT22;61651;45.508;12.232;2022-07-23T06:51:37;30.50;99.90
14008;DHT22;61651;45.508;12.232;2022-07-23T06:54:39;30.60;99.90
14008;DHT22;61651;45.508;12.232;2022-07-23T06:57:43;30.60;99.90
14008;DHT22;61651;45.508;12.232;2022-07-23T07:00:45;30.60;99.90
14008;DHT22;61651;45.508;12.232;2022-07-23T07:03:47;30.60;99.90
14008;DHT22;61651;45.508;12.232;2022-07-23T07:06:49;30.60;99.90
14008;DHT22;61651;45.508;12.232;2022-07-23T07:09:51;30.70;99.90
14008;DHT22;61651;45.508;12.232;2022-07-23T07:12:54;30.70;99.90
14008;DHT22;61651;45.508;12.232;2022-07-23T07:15:56;30.70;99.90
14008;DHT22;61651;45.508;12.232;2022-07-23T07:18:58;30.60;99.90
14008;DHT22;61651;45.508;12.232;2022-07-23T07:22:00;30.60;99.90
14008;DHT22;61651;45.508;12.232;2022-07-23T07:25:03;30.70;99.90
14008;DHT22;61651;45.508;12.232;2022-07-23T07:28:06;30.80;99.90
14008;DHT22;61651;45.508;12.232;2022-07-23T07:31:08;30.90;99.90
14008;DHT22;61651;45.508;12.232;2022-07-23T07:34:10;31.00;99.90
14008;DHT22;61651;45.508;12.232;2022-07-23T07:37:12;31.10;99.90
14008;DHT22;61651;45.508;12.232;2022-07-23T07:40:14;31.20;99.90
14008;DHT22;61651;45.508;12.232;2022-07-23T07:43:17;31.40;99.90
14008;DHT22;61651;45.508;12.232;2022-07-23T07:46:20;31.50;99.90
14008;DHT22;61651;45.508;12.232;2022-07-23T07:49:24;31.60;99.90
14008;DHT22;61651;45.508;12.232;2022-07-23T07:52:26;31.70;99.90
14008;DHT22;61651;45.508;12.232;2022-07-23T07:55:28;31.90;99.90
14008;DHT22;61651;45.508;12.232;2022-07-23T07:58:31;32.00;99.90
14008;DHT22;61651;45.508;12.232;2022-07-23T08:01:34;32.20;99.90
14008;DHT22;61651;45.508;12.232;2022-07-23T08:04:36;32.30;99.90
14008;DHT22;61651;45.508;12.232;2022-07-23T08:07:38;32.30;99.90
14008;DHT22;61651;45.508;12.232;2022-07-23T08:10:40;32.50;99.90
14008;DHT22;61651;45.508;12.232;2022-07-23T08:13:45;32.60;99.90
14008;DHT22;61651;45.508;12.232;2022-07-23T08:16:47;32.70;99.90
14008;DHT22;61651;45.508;12.232;2022-07-23T08:19:49;32.80;99.90
14008;DHT22;61651;45.508;12.232;2022-07-23T08:22:52;32.90;99.90
14008;DHT22;61651;45.508;12.232;2022-07-23T08:25:55;32.90;99.90
14008;DHT22;61651;45.508;12.232;2022-07-23T08:28:59;33.00;99.90
14008;DHT22;61651;45.508;12.232;2022-07-23T08:32:01;33.10;99.90
14008;DHT22;61651;45.508;12.232;2022-07-23T08:35:04;33.20;99.90
14008;DHT22;61651;45.508;12.232;2022-07-23T08:38:08;33.30;99.90
14008;DHT22;61651;45.508;12.232;2022-07-23T08:41:10;33.50;99.90
14008;DHT22;61651;45.508;12.232;2022-07-23T08:44:16;33.40;99.90
14008;DHT22;61651;45.508;12.232;2022-07-23T08:47:18;33.50;99.90
14008;DHT22;61651;45.508;12.232;2022-07-23T08:50:20;33.60;99.90
14008;DHT22;61651;45.508;12.232;2022-07-23T08:53:24;33.70;99.90
14008;DHT22;61651;45.508;12.232;2022-07-23T08:56:26;33.90;99.90
14008;DHT22;61651;45.508;12.232;2022-07-23T08:59:30;33.90;99.90
14008;DHT22;61651;45.508;12.232;2022-07-23T09:02:38;34.00;99.90
14008;DHT22;61651;45.508;12.232;2022-07-23T09:05:41;34.10;99.90
14008;DHT22;61651;45.508;12.232;2022-07-23T09:08:44;34.20;99.80
14008;DHT22;61651;45.508;12.232;2022-07-23T09:11:47;34.20;99.40
14008;DHT22;61651;45.508;12.232;2022-07-23T09:14:51;34.40;99.60
14008;DHT22;61651;45.508;12.232;2022-07-23T09:17:53;34.30;99.90
14008;DHT22;61651;45.508;12.232;2022-07-23T09:21:06;34.50;99.40
14008;DHT22;61651;45.508;12.232;2022-07-23T09:24:10;34.70;98.10
14008;DHT22;61651;45.508;12.232;2022-07-23T09:27:12;34.80;99.60
14008;DHT22;61651;45.508;12.232;2022-07-23T09:30:15;34.90;99.90
14008;DHT22;61651;45.508;12.232;2022-07-23T09:33:18;35.00;99.50
14008;DHT22;61651;45.508;12.232;2022-07-23T09:36:30;35.00;99.10
14008;DHT22;61651;45.508;12.232;2022-07-23T09:39:32;35.00;99.30
14008;DHT22;61651;45.508;12.232;2022-07-23T09:42:35;35.00;98.70
14008;DHT22;61651;45.508;12.232;2022-07-23T09:45:38;35.00;98.80
14008;DHT22;61651;45.508;12.232;2022-07-23T09:48:41;35.10;98.80
14008;DHT22;61651;45.508;12.232;2022-07-23T09:51:48;35.30;98.60
14008;DHT22;61651;45.508;12.232;2022-07-23T09:54:57;35.50;98.50
14008;DHT22;61651;45.508;12.232;2022-07-23T09:58:00;35.70;98.70
14008;DHT22;61651;45.508;12.232;2022-07-23T10:01:06;35.70;97.70
14008;DHT22;61651;45.508;12.232;2022-07-23T10:04:08;35.90;97.90
14008;DHT22;61651;45.508;12.232;2022-07-23T10:07:14;35.90;97.30
14008;DHT22;61651;45.508;12.232;2022-07-23T10:10:21;36.00;96.60
14008;DHT22;61651;45.508;12.232;2022-07-23T10:13:24;36.10;96.20
14008;DHT22;61651;45.508;12.232;2022-07-23T10:16:48;36.30;95.60
14008;DHT22;61651;45.508;12.232;2022-07-23T10:19:50;36.40;93.60
14008;DHT22;61651;45.508;12.232;2022-07-23T10:22:58;36.50;93.10
14008;DHT22;61651;45.508;12.232;2022-07-23T10:26:09;36.60;92.70
14008;DHT22;61651;45.508;12.232;2022-07-23T10:29:21;36.60;92.20
14008;DHT22;61651;45.508;12.232;2022-07-23T10:32:37;36.60;90.80
14008;DHT22;61651;45.508;12.232;2022-07-23T10:35:46;36.60;91.30
14008;DHT22;61651;45.508;12.232;2022-07-23T10:38:54;36.60;90.00
14008;DHT22;61651;45.508;12.232;2022-07-23T10:42:08;36.60;89.20
14008;DHT22;61651;45.508;12.232;2022-07-23T10:45:30;36.80;90.00
14008;DHT22;61651;45.508;12.232;2022-07-23T10:48:33;37.00;83.10
14008;DHT22;61651;45.508;12.232;2022-07-23T10:51:35;37.10;84.00
14008;DHT22;61651;45.508;12.232;2022-07-23T10:54:38;37.30;84.60
14008;DHT22;61651;45.508;12.232;2022-07-23T10:57:48;37.30;81.70
14008;DHT22;61651;45.508;12.232;2022-07-23T11:00:50;37.50;81.50
14008;DHT22;61651;45.508;12.232;2022-07-23T11:03:57;37.40;79.30
14008;DHT22;61651;45.508;12.232;2022-07-23T11:07:09;37.40;79.00
14008;DHT22;61651;45.508;12.232;2022-07-23T11:10:32;37.50;79.00
14008;DHT22;61651;45.508;12.232;2022-07-23T11:13:46;37.60;80.30
14008;DHT22;61651;45.508;12.232;2022-07-23T11:16:48;37.70;79.70
14008;DHT22;61651;45.508;12.232;2022-07-23T11:20:19;37.70;81.20
14008;DHT22;61651;45.508;12.232;2022-07-23T11:23:21;37.70;83.40
14008;DHT22;61651;45.508;12.232;2022-07-23T11:26:54;37.70;83.10
14008;DHT22;61651;45.508;12.232;2022-07-23T11:29:57;37.70;88.90
14008;DHT22;61651;45.508;12.232;2022-07-23T11:33:17;37.70;88.10
14008;DHT22;61651;45.508;12.232;2022-07-23T11:36:20;37.70;89.50
14008;DHT22;61651;45.508;12.232;2022-07-23T11:39:25;37.90;90.80
14008;DHT22;61651;45.508;12.232;2022-07-23T11:42:27;38.00;92.20
14008;DHT22;61651;45.508;12.232;2022-07-23T11:45:32;38.10;91.40
14008;DHT22;61651;45.508;12.232;2022-07-23T11:48:34;38.20;91.40
14008;DHT22;61651;45.508;12.232;2022-07-23T11:51:38;38.50;90.90
14008;DHT22;61651;45.508;12.232;2022-07-23T11:54:47;38.60;90.30
14008;DHT22;61651;45.508;12.232;2022-07-23T11:57:51;38.80;90.60
14008;DHT22;61651;45.508;12.232;2022-07-23T12:00:55;39.00;90.00
14008;DHT22;61651;45.508;12.232;2022-07-23T12:03:57;39.10;89.40
14008;DHT22;61651;45.508;12.232;2022-07-23T12:07:00;39.10;89.30
14008;DHT22;61651;45.508;12.232;2022-07-23T12:10:05;39.00;87.90
14008;DHT22;61651;45.508;12.232;2022-07-23T12:13:13;39.00;88.00
14008;DHT22;61651;45.508;12.232;2022-07-23T12:16:16;39.00;90.10
14008;DHT22;61651;45.508;12.232;2022-07-23T12:19:19;39.00;90.50
14008;DHT22;61651;45.508;12.232;2022-07-23T12:22:23;38.90;90.60
14008;DHT22;61651;45.508;12.232;2022-07-23T12:25:27;39.00;90.10
14008;DHT22;61651;45.508;12.232;2022-07-23T12:28:31;39.00;88.20
14008;DHT22;61651;45.508;12.232;2022-07-23T12:31:34;38.80;90.90
14008;DHT22;61651;45.508;12.232;2022-07-23T12:34:38;39.00;90.50
14008;DHT22;61651;45.508;12.232;2022-07-23T12:37:43;39.10;90.50
14008;DHT22;61651;45.508;12.232;2022-07-23T12:40:47;39.10;90.60
14008;DHT22;61651;45.508;12.232;2022-07-23T12:43:49;39.20;90.40
14008;DHT22;61651;45.508;12.232;2022-07-23T12:46:52;39.40;90.20
14008;DHT22;61651;45.508;12.232;2022-07-23T12:49:54;39.50;88.50
14008;DHT22;61651;45.508;12.232;2022-07-23T12:53:06;39.70;87.60
14008;DHT22;61651;45.508;12.232;2022-07-23T12:56:10;39.80;88.40
14008;DHT22;61651;45.508;12.232;2022-07-23T12:59:14;39.90;88.30
14008;DHT22;61651;45.508;12.232;2022-07-23T13:02:17;40.00;87.00
14008;DHT22;61651;45.508;12.232;2022-07-23T13:05:19;40.00;89.70
14008;DHT22;61651;45.508;12.232;2022-07-23T13:08:23;40.10;90.30
14008;DHT22;61651;45.508;12.232;2022-07-23T13:11:25;40.20;89.50
14008;DHT22;61651;45.508;12.232;2022-07-23T13:14:27;40.30;86.60
14008;DHT22;61651;45.508;12.232;2022-07-23T13:17:29;40.50;86.20
14008;DHT22;61651;45.508;12.232;2022-07-23T13:20:33;40.50;83.60
14008;DHT22;61651;45.508;12.232;2022-07-23T13:23:37;40.40;84.40
14008;DHT22;61651;45.508;12.232;2022-07-23T13:26:40;40.30;82.00
14008;DHT22;61651;45.508;12.232;2022-07-23T13:29:42;40.30;81.10
14008;DHT22;61651;45.508;12.232;2022-07-23T13:32:44;40.20;76.40
14008;DHT22;61651;45.508;12.232;2022-07-23T13:35:47;40.40;76.80
14008;DHT22;61651;45.508;12.232;2022-07-23T13:38:51;40.70;78.00
14008;DHT22;61651;45.508;12.232;2022-07-23T13:41:52;40.90;76.90
14008;DHT22;61651;45.508;12.232;2022-07-23T13:44:54;41.10;75.00
14008;DHT22;61651;45.508;12.232;2022-07-23T13:47:56;41.20;71.80
14008;DHT22;61651;45.508;12.232;2022-07-23T13:50:58;41.40;73.60
14008;DHT22;61651;45.508;12.232;2022-07-23T13:54:02;41.80;74.10
14008;DHT22;61651;45.508;12.232;2022-07-23T13:57:04;42.30;71.00
14008;DHT22;61651;45.508;12.232;2022-07-23T14:00:08;42.60;71.00
14008;DHT22;61651;45.508;12.232;2022-07-23T14:03:11;42.90;68.30
14008;DHT22;61651;45.508;12.232;2022-07-23T14:06:13;42.70;65.70
14008;DHT22;61651;45.508;12.232;2022-07-23T14:09:16;42.70;67.00
14008;DHT22;61651;45.508;12.232;2022-07-23T14:12:18;42.80;66.00
14008;DHT22;61651;45.508;12.232;2022-07-23T14:15:20;42.90;70.50
14008;DHT22;61651;45.508;12.232;2022-07-23T14:18:22;42.90;65.20
14008;DHT22;61651;45.508;12.232;2022-07-23T14:21:24;42.80;59.80
14008;DHT22;61651;45.508;12.232;2022-07-23T14:24:28;42.80;60.80
14008;DHT22;61651;45.508;12.232;2022-07-23T14:27:30;42.90;60.90
14008;DHT22;61651;45.508;12.232;2022-07-23T14:30:32;42.80;63.20
14008;DHT22;61651;45.508;12.232;2022-07-23T14:33:34;42.70;63.30
14008;DHT22;61651;45.508;12.232;2022-07-23T14:36:36;42.90;59.90
14008;DHT22;61651;45.508;12.232;2022-07-23T14:39:40;43.10;59.70
14008;DHT22;61651;45.508;12.232;2022-07-23T14:42:42;43.00;63.00
14008;DHT22;61651;45.508;12.232;2022-07-23T14:45:45;43.10;64.20
14008;DHT22;61651;45.508;12.232;2022-07-23T14:48:47;43.30;63.00
14008;DHT22;61651;45.508;12.232;2022-07-23T14:51:49;43.50;64.20
14008;DHT22;61651;45.508;12.232;2022-07-23T14:54:52;43.50;63.60
14008;DHT22;61651;45.508;12.232;2022-07-23T14:57:54;43.60;66.30
14008;DHT22;61651;45.508;12.232;2022-07-23T15:00:56;43.80;65.50
14008;DHT22;61651;45.508;12.232;2022-07-23T15:03:58;43.90;63.80
14008;DHT22;61651;45.508;12.232;2022-07-23T15:07:00;43.70;59.30
14008;DHT22;61651;45.508;12.232;2022-07-23T15:10:06;43.70;59.30
14008;DHT22;61651;45.508;12.232;2022-07-23T15:13:08;43.80;63.10
14008;DHT22;61651;45.508;12.232;2022-07-23T15:16:10;43.70;63.20
14008;DHT22;61651;45.508;12.232;2022-07-23T15:19:12;43.70;64.40
14008;DHT22;61651;45.508;12.232;2022-07-23T15:22:14;43.80;63.40
14008;DHT22;61651;45.508;12.232;2022-07-23T15:25:17;44.00;61.90
14008;DHT22;61651;45.508;12.232;2022-07-23T15:28:19;44.00;59.60
14008;DHT22;61651;45.508;12.232;2022-07-23T15:31:22;43.90;60.20
14008;DHT22;61651;45.508;12.232;2022-07-23T15:34:24;44.00;60.00
14008;DHT22;61651;45.508;12.232;2022-07-23T15:37:26;43.70;59.90
14008;DHT22;61651;45.508;12.232;2022-07-23T15:40:29;43.70;60.10
14008;DHT22;61651;45.508;12.232;2022-07-23T15:43:31;43.70;58.70
14008;DHT22;61651;45.508;12.232;2022-07-23T15:46:33;43.60;61.20
14008;DHT22;61651;45.508;12.232;2022-07-23T15:49:35;43.10;59.30
14008;DHT22;61651;45.508;12.232;2022-07-23T15:52:37;42.90;61.50
14008;DHT22;61651;45.508;12.232;2022-07-23T15:55:41;42.90;63.70
14008;DHT22;61651;45.508;12.232;2022-07-23T15:58:44;42.40;61.40
14008;DHT22;61651;45.508;12.232;2022-07-23T16:01:46;42.00;62.70
14008;DHT22;61651;45.508;12.232;2022-07-23T16:04:48;41.60;64.80
14008;DHT22;61651;45.508;12.232;2022-07-23T16:07:50;41.20;63.10
14008;DHT22;61651;45.508;12.232;2022-07-23T16:10:53;40.90;64.70
14008;DHT22;61651;45.508;12.232;2022-07-23T16:13:57;40.30;67.30
14008;DHT22;61651;45.508;12.232;2022-07-23T16:16:59;40.30;69.00
14008;DHT22;61651;45.508;12.232;2022-07-23T16:20:01;40.20;70.10
14008;DHT22;61651;45.508;12.232;2022-07-23T16:23:04;40.10;66.70
14008;DHT22;61651;45.508;12.232;2022-07-23T16:26:08;40.00;67.30
14008;DHT22;61651;45.508;12.232;2022-07-23T16:29:11;39.70;67.60
14008;DHT22;61651;45.508;12.232;2022-07-23T16:32:13;39.50;71.00
14008;DHT22;61651;45.508;12.232;2022-07-23T16:35:15;39.30;71.10
14008;DHT22;61651;45.508;12.232;2022-07-23T16:38:17;39.20;72.30
14008;DHT22;61651;45.508;12.232;2022-07-23T16:41:20;39.00;72.30
14008;DHT22;61651;45.508;12.232;2022-07-23T16:44:22;38.80;72.60
14008;DHT22;61651;45.508;12.232;2022-07-23T16:47:24;38.60;72.40
14008;DHT22;61651;45.508;12.232;2022-07-23T16:50:26;38.50;73.90
14008;DHT22;61651;45.508;12.232;2022-07-23T16:53:28;38.30;72.50
14008;DHT22;61651;45.508;12.232;2022-07-23T16:56:31;38.20;76.20
14008;DHT22;61651;45.508;12.232;2022-07-23T16:59:33;38.00;78.80
14008;DHT22;61651;45.508;12.232;2022-07-23T17:02:35;37.90;81.90
14008;DHT22;61651;45.508;12.232;2022-07-23T17:05:37;37.80;82.20
14008;DHT22;61651;45.508;12.232;2022-07-23T17:08:40;37.60;83.20
14008;DHT22;61651;45.508;12.232;2022-07-23T17:11:43;37.30;86.40
14008;DHT22;61651;45.508;12.232;2022-07-23T17:14:46;37.10;87.60
14008;DHT22;61651;45.508;12.232;2022-07-23T17:17:48;37.10;89.20
14008;DHT22;61651;45.508;12.232;2022-07-23T17:20:50;37.10;91.90
14008;DHT22;61651;45.508;12.232;2022-07-23T17:23:52;36.90;92.60
14008;DHT22;61651;45.508;12.232;2022-07-23T17:26:55;36.80;93.00
14008;DHT22;61651;45.508;12.232;2022-07-23T17:29:58;36.60;93.10
14008;DHT22;61651;45.508;12.232;2022-07-23T17:33:00;36.40;93.40
14008;DHT22;61651;45.508;12.232;2022-07-23T17:36:02;36.30;94.20
14008;DHT22;61651;45.508;12.232;2022-07-23T17:39:05;36.10;95.40
14008;DHT22;61651;45.508;12.232;2022-07-23T17:42:08;36.00;95.80
14008;DHT22;61651;45.508;12.232;2022-07-23T17:45:11;36.00;96.70
14008;DHT22;61651;45.508;12.232;2022-07-23T17:48:15;35.90;98.20
14008;DHT22;61651;45.508;12.232;2022-07-23T17:51:17;35.70;99.40
14008;DHT22;61651;45.508;12.232;2022-07-23T17:54:19;35.60;99.90
14008;DHT22;61651;45.508;12.232;2022-07-23T17:57:23;35.40;99.90
14008;DHT22;61651;45.508;12.232;2022-07-23T18:00:28;35.20;99.90
14008;DHT22;61651;45.508;12.232;2022-07-23T18:03:31;35.10;99.90
14008;DHT22;61651;45.508;12.232;2022-07-23T18:06:33;35.00;99.90
14008;DHT22;61651;45.508;12.232;2022-07-23T18:09:35;34.80;99.90
14008;DHT22;61651;45.508;12.232;2022-07-23T18:12:39;34.70;99.90
14008;DHT22;61651;45.508;12.232;2022-07-23T18:15:41;34.50;99.90
14008;DHT22;61651;45.508;12.232;2022-07-23T18:18:43;34.60;99.90
14008;DHT22;61651;45.508;12.232;2022-07-23T18:21:45;34.70;99.90
14008;DHT22;61651;45.508;12.232;2022-07-23T18:24:47;34.80;99.90
14008;DHT22;61651;45.508;12.232;2022-07-23T18:27:50;34.70;99.90
14008;DHT22;61651;45.508;12.232;2022-07-23T18:30:52;34.80;99.90
14008;DHT22;61651;45.508;12.232;2022-07-23T18:33:54;34.80;99.90
14008;DHT22;61651;45.508;12.232;2022-07-23T18:36:58;34.80;99.90
14008;DHT22;61651;45.508;12.232;2022-07-23T18:40:00;34.70;99.90
14008;DHT22;61651;45.508;12.232;2022-07-23T18:43:05;34.70;99.90
14008;DHT22;61651;45.508;12.232;2022-07-23T18:46:07;34.60;99.90
14008;DHT22;61651;45.508;12.232;2022-07-23T18:49:09;34.60;99.90
14008;DHT22;61651;45.508;12.232;2022-07-23T18:52:11;34.50;99.90
14008;DHT22;61651;45.508;12.232;2022-07-23T18:55:13;34.40;99.90
14008;DHT22;61651;45.508;12.232;2022-07-23T18:58:17;34.20;99.90